sensor_id;sensor_type;location;lat;lon;timestamp;pressure;altitude;pressure_sealevel;temperature;humidity
12219;BME280;6172;42.646;23.344;2023-01-27T00:02:20;93813.69;;;-2.02;100.00
12219;BME280;6172;42.646;23.344;2023-01-27T00:04:47;93826.09;;;-1.90;100.00
12219;BME280;6172;42.646;23.344;2023-01-27T00:07:15;93810.56;;;-1.85;100.00
12219;BME280;6172;42.646;23.344;2023-01-27T00:09:42;93805.38;;;-1.97;100.00
12219;BME280;6172;42.646;23.344;2023-01-27T00:12:17;93803.25;;;-1.88;100.00
12219;BME280;6172;42.646;23.344;2023-01-27T00:15:03;93800.41;;;-1.98;100.00
12219;BME280;6172;42.646;23.344;2023-01-27T00:17:30;93806.22;;;-1.93;100.00
12219;BME280;6172;42.646;23.344;2023-01-27T00:19:58;93795.97;;;-1.91;100.00
12219;BME280;6172;42.646;23.344;2023-01-27T00:22:26;93781.38;;;-1.97;100.00
12219;BME280;6172;42.646;23.344;2023-01-27T00:25:11;93781.84;;;-2.14;100.00
12219;BME280;6172;42.646;23.344;2023-01-27T00:27:39;93780.34;;;-2.11;100.00
12219;BME280;6172;42.646;23.344;2023-01-27T00:30:15;93784.31;;;-2.02;100.00
12219;BME280;6172;42.646;23.344;2023-01-27T00:32:42;93784.47;;;-1.95;100.00
12219;BME280;6172;42.646;23.344;2023-01-27T00:35:27;93787.75;;;-2.01;100.00
12219;BME280;6172;42.646;23.344;2023-01-27T00:37:58;93788.47;;;-2.04;100.00
12219;BME280;6172;42.646;23.344;2023-01-27T00:40:28;93776.19;;;-2.09;100.00
12219;BME280;6172;42.646;23.344;2023-01-27T00:42:56;93779.94;;;-2.13;100.00
12219;BME280;6172;42.646;23.344;2023-01-27T00:45:23;93786.03;;;-2.13;100.00
12219;BME280;6172;42.646;23.344;2023-01-27T00:48:07;93792.13;;;-1.93;100.00
12219;BME280;6172;42.646;23.344;2023-01-27T00:50:34;93792.63;;;-1.84;100.00
12219;BME280;6172;42.646;23.344;2023-01-27T00:53:03;93794.59;;;-1.81;100.00
12219;BME280;6172;42.646;23.344;2023-01-27T00:55:30;93792.97;;;-1.86;100.00
12219;BME280;6172;42.646;23.344;2023-01-27T00:57:58;93777.56;;;-1.96;100.00
12219;BME280;6172;42.646;23.344;2023-01-27T01:00:27;93782.78;;;-2.03;100.00
12219;BME280;6172;42.646;23.344;2023-01-27T01:02:55;93791.34;;;-1.94;100.00
12219;BME280;6172;42.646;23.344;2023-01-27T01:05:22;93778.19;;;-1.80;100.00
12219;BME280;6172;42.646;23.344;2023-01-27T01:07:50;93773.88;;;-1.88;100.00
12219;BME280;6172;42.646;23.344;2023-01-27T01:10:19;93768.88;;;-1.67;100.00
12219;BME280;6172;42.646;23.344;2023-01-27T01:12:47;93769.19;;;-1.72;100.00
12219;BME280;6172;42.646;23.344;2023-01-27T01:15:14;93773.78;;;-1.69;100.00
12219;BME280;6172;42.646;23.344;2023-01-27T01:17:41;93774.03;;;-1.54;100.00
12219;BME280;6172;42.646;23.344;2023-01-27T01:20:11;93770.94;;;-1.56;100.00
12219;BME280;6172;42.646;23.344;2023-01-27T01:22:41;93761.47;;;-1.50;100.00
12219;BME280;6172;42.646;23.344;2023-01-27T01:25:08;93771.59;;;-1.63;100.00
12219;BME280;6172;42.646;23.344;2023-01-27T01:27:37;93758.19;;;-1.67;100.00
12219;BME280;6172;42.646;23.344;2023-01-27T01:30:06;93765.56;;;-1.60;100.00
12219;BME280;6172;42.646;23.344;2023-01-27T01:32:42;93766.81;;;-1.77;100.00
12219;BME280;6172;42.646;23.344;2023-01-27T01:35:09;93781.34;;;-1.74;100.00
12219;BME280;6172;42.646;23.344;2023-01-27T01:37:38;93781.06;;;-1.69;100.00
12219;BME280;6172;42.646;23.344;2023-01-27T01:40:07;93786.75;;;-1.71;100.00
12219;BME280;6172;42.646;23.344;2023-01-27T01:43:02;93791.03;;;-1.66;100.00
12219;BME280;6172;42.646;23.344;2023-01-27T01:45:46;93781.50;;;-1.63;100.00
12219;BME280;6172;42.646;23.344;2023-01-27T01:48:20;93783.72;;;-1.69;100.00
12219;BME280;6172;42.646;23.344;2023-01-27T01:50:52;93778.19;;;-1.80;100.00
12219;BME280;6172;42.646;23.344;2023-01-27T01:53:23;93780.28;;;-1.70;100.00
12219;BME280;6172;42.646;23.344;2023-01-27T01:55:57;93779.72;;;-1.79;100.00
12219;BME280;6172;42.646;23.344;2023-01-27T01:58:28;93776.53;;;-1.65;100.00
12219;BME280;6172;42.646;23.344;2023-01-27T02:00:56;93772.72;;;-1.64;100.00
12219;BME280;6172;42.646;23.344;2023-01-27T02:03:24;93746.88;;;-1.83;100.00
12219;BME280;6172;42.646;23.344;2023-01-27T02:05:54;93734.69;;;-1.80;100.00
12219;BME280;6172;42.646;23.344;2023-01-27T02:08:26;93746.13;;;-1.83;100.00
12219;BME280;6172;42.646;23.344;2023-01-27T02:10:58;93736.53;;;-1.84;100.00
12219;BME280;6172;42.646;23.344;2023-01-27T02:13:25;93725.94;;;-1.81;100.00
12219;BME280;6172;42.646;23.344;2023-01-27T02:15:55;93711.19;;;-1.71;100.00
12219;BME280;6172;42.646;23.344;2023-01-27T02:18:22;93707.06;;;-1.91;100.00
12219;BME280;6172;42.646;23.344;2023-01-27T02:20:50;93710.47;;;-1.94;100.00
12219;BME280;6172;42.646;23.344;2023-01-27T02:23:39;93711.03;;;-1.82;100.00
12219;BME280;6172;42.646;23.344;2023-01-27T02:26:10;93715.50;;;-1.89;100.00
12219;BME280;6172;42.646;23.344;2023-01-27T02:28:40;93711.16;;;-1.75;100.00
12219;BME280;6172;42.646;23.344;2023-01-27T02:31:08;93714.13;;;-1.80;100.00
12219;BME280;6172;42.646;23.344;2023-01-27T02:33:36;93712.16;;;-1.83;100.00
12219;BME280;6172;42.646;23.344;2023-01-27T02:36:07;93715.03;;;-1.69;100.00
12219;BME280;6172;42.646;23.344;2023-01-27T02:38:38;93696.56;;;-1.81;100.00
12219;BME280;6172;42.646;23.344;2023-01-27T02:41:14;93696.34;;;-1.69;100.00
12219;BME280;6172;42.646;23.344;2023-01-27T02:43:46;93701.06;;;-1.58;100.00
12219;BME280;6172;42.646;23.344;2023-01-27T02:46:14;93716.59;;;-1.68;100.00
12219;BME280;6172;42.646;23.344;2023-01-27T02:48:41;93723.88;;;-1.64;100.00
12219;BME280;6172;42.646;23.344;2023-01-27T02:51:08;93729.31;;;-1.57;100.00
12219;BME280;6172;42.646;23.344;2023-01-27T02:53:35;93725.88;;;-1.58;100.00
12219;BME280;6172;42.646;23.344;2023-01-27T02:56:03;93712.75;;;-1.70;100.00
12219;BME280;6172;42.646;23.344;2023-01-27T02:58:32;93709.91;;;-1.54;100.00
12219;BME280;6172;42.646;23.344;2023-01-27T03:00:59;93718.91;;;-1.66;100.00
12219;BME280;6172;42.646;23.344;2023-01-27T03:03:26;93722.31;;;-1.66;100.00
12219;BME280;6172;42.646;23.344;2023-01-27T03:05:53;93707.69;;;-1.75;100.00
12219;BME280;6172;42.646;23.344;2023-01-27T03:08:20;93711.44;;;-1.53;100.00
12219;BME280;6172;42.646;23.344;2023-01-27T03:10:49;93699.00;;;-1.69;100.00
12219;BME280;6172;42.646;23.344;2023-01-27T03:13:20;93702.91;;;-1.63;100.00
12219;BME280;6172;42.646;23.344;2023-01-27T03:15:49;93689.56;;;-1.63;100.00
12219;BME280;6172;42.646;23.344;2023-01-27T03:18:35;93694.91;;;-1.63;100.00
12219;BME280;6172;42.646;23.344;2023-01-27T03:21:05;93682.50;;;-1.78;100.00
12219;BME280;6172;42.646;23.344;2023-01-27T03:23:33;93679.75;;;-1.81;100.00
12219;BME280;6172;42.646;23.344;2023-01-27T03:26:04;93688.94;;;-1.79;100.00
12219;BME280;6172;42.646;23.344;2023-01-27T03:28:32;93690.53;;;-1.74;100.00
12219;BME280;6172;42.646;23.344;2023-01-27T03:31:02;93676.00;;;-1.77;100.00
12219;BME280;6172;42.646;23.344;2023-01-27T03:33:30;93667.81;;;-1.91;100.00
12219;BME280;6172;42.646;23.344;2023-01-27T03:36:00;93667.81;;;-1.91;100.00
12219;BME280;6172;42.646;23.344;2023-01-27T03:38:46;93666.38;;;-1.85;100.00
12219;BME280;6172;42.646;23.344;2023-01-27T03:41:30;93651.06;;;-1.88;100.00
12219;BME280;6172;42.646;23.344;2023-01-27T03:44:15;93634.28;;;-1.58;100.00
12219;BME280;6172;42.646;23.344;2023-01-27T03:47:01;93622.69;;;-1.70;100.00
12219;BME280;6172;42.646;23.344;2023-01-27T03:49:28;93633.69;;;-1.75;100.00
12219;BME280;6172;42.646;23.344;2023-01-27T03:51:56;93642.63;;;-1.90;100.00
12219;BME280;6172;42.646;23.344;2023-01-27T03:54:23;93651.53;;;-1.82;100.00
12219;BME280;6172;42.646;23.344;2023-01-27T03:56:50;93645.59;;;-1.69;100.00
12219;BME280;6172;42.646;23.344;2023-01-27T03:59:18;93641.63;;;-1.52;100.00
12219;BME280;6172;42.646;23.344;2023-01-27T04:01:46;93645.78;;;-1.54;100.00
12219;BME280;6172;42.646;23.344;2023-01-27T04:04:14;93671.09;;;-1.75;100.00
12219;BME280;6172;42.646;23.344;2023-01-27T04:06:58;93682.69;;;-1.63;100.00
12219;BME280;6172;42.646;23.344;2023-01-27T04:09:29;93687.00;;;-1.82;100.00
12219;BME280;6172;42.646;23.344;2023-01-27T04:11:58;93701.19;;;-1.78;100.00
12219;BME280;6172;42.646;23.344;2023-01-27T04:14:29;93714.19;;;-1.76;100.00
12219;BME280;6172;42.646;23.344;2023-01-27T04:16:58;93722.22;;;-1.73;100.00
12219;BME280;6172;42.646;23.344;2023-01-27T04:19:41;93723.78;;;-1.72;100.00
12219;BME280;6172;42.646;23.344;2023-01-27T04:22:22;93710.31;;;-1.79;100.00
12219;BME280;6172;42.646;23.344;2023-01-27T04:24:51;93720.75;;;-1.70;100.00
12219;BME280;6172;42.646;23.344;2023-01-27T04:27:18;93712.88;;;-1.86;100.00
12219;BME280;6172;42.646;23.344;2023-01-27T04:29:46;93730.31;;;-1.69;100.00
12219;BME280;6172;42.646;23.344;2023-01-27T04:32:13;93726.31;;;-1.79;100.00
12219;BME280;6172;42.646;23.344;2023-01-27T04:34:42;93739.66;;;-1.56;100.00
12219;BME280;6172;42.646;23.344;2023-01-27T04:37:10;93724.19;;;-1.70;100.00
12219;BME280;6172;42.646;23.344;2023-01-27T04:39:38;93725.69;;;-1.72;100.00
12219;BME280;6172;42.646;23.344;2023-01-27T04:42:06;93739.56;;;-1.63;100.00
12219;BME280;6172;42.646;23.344;2023-01-27T04:44:33;93737.19;;;-1.68;100.00
12219;BME280;6172;42.646;23.344;2023-01-27T04:47:00;93730.34;;;-1.66;100.00
12219;BME280;6172;42.646;23.344;2023-01-27T04:49:27;93725.78;;;-1.65;100.00
12219;BME280;6172;42.646;23.344;2023-01-27T04:51:58;93729.97;;;-1.64;100.00
12219;BME280;6172;42.646;23.344;2023-01-27T04:54:26;93738.34;;;-1.66;100.00
12219;BME280;6172;42.646;23.344;2023-01-27T04:56:55;93746.38;;;-1.66;100.00
12219;BME280;6172;42.646;23.344;2023-01-27T04:59:23;93746.63;;;-1.74;100.00
12219;BME280;6172;42.646;23.344;2023-01-27T05:01:50;93744.13;;;-1.63;100.00
12219;BME280;6172;42.646;23.344;2023-01-27T05:04:19;93744.06;;;-1.67;100.00
12219;BME280;6172;42.646;23.344;2023-01-27T05:06:46;93746.97;;;-1.76;100.00
12219;BME280;6172;42.646;23.344;2023-01-27T05:09:18;93753.91;;;-1.71;100.00
12219;BME280;6172;42.646;23.344;2023-01-27T05:11:45;93754.63;;;-1.74;100.00
12219;BME280;6172;42.646;23.344;2023-01-27T05:14:12;93739.91;;;-1.64;100.00
12219;BME280;6172;42.646;23.344;2023-01-27T05:16:40;93746.25;;;-1.73;100.00
12219;BME280;6172;42.646;23.344;2023-01-27T05:19:07;93750.00;;;-1.77;100.00
12219;BME280;6172;42.646;23.344;2023-01-27T05:21:35;93741.63;;;-1.76;100.00
12219;BME280;6172;42.646;23.344;2023-01-27T05:24:02;93739.47;;;-1.70;100.00
12219;BME280;6172;42.646;23.344;2023-01-27T05:26:32;93727.16;;;-1.48;100.00
12219;BME280;6172;42.646;23.344;2023-01-27T05:29:01;93713.13;;;-1.68;100.00
12219;BME280;6172;42.646;23.344;2023-01-27T05:31:29;93718.22;;;-1.59;100.00
12219;BME280;6172;42.646;23.344;2023-01-27T05:33:58;93710.22;;;-1.59;100.00
12219;BME280;6172;42.646;23.344;2023-01-27T05:36:26;93724.78;;;-1.53;100.00
12219;BME280;6172;42.646;23.344;2023-01-27T05:38:57;93714.63;;;-1.44;100.00
12219;BME280;6172;42.646;23.344;2023-01-27T05:41:25;93716.72;;;-1.57;100.00
12219;BME280;6172;42.646;23.344;2023-01-27T05:43:55;93704.13;;;-1.60;100.00
12219;BME280;6172;42.646;23.344;2023-01-27T05:46:24;93708.56;;;-1.68;100.00
12219;BME280;6172;42.646;23.344;2023-01-27T05:48:57;93701.88;;;-1.54;100.00
12219;BME280;6172;42.646;23.344;2023-01-27T05:51:28;93719.34;;;-1.60;100.00
12219;BME280;6172;42.646;23.344;2023-01-27T05:53:56;93721.81;;;-1.48;100.00
12219;BME280;6172;42.646;23.344;2023-01-27T05:56:24;93726.13;;;-1.40;100.00
12219;BME280;6172;42.646;23.344;2023-01-27T05:58:52;93733.63;;;-1.49;100.00
12219;BME280;6172;42.646;23.344;2023-01-27T06:01:24;93738.41;;;-1.36;100.00
12219;BME280;6172;42.646;23.344;2023-01-27T06:03:52;93746.69;;;-1.44;100.00
12219;BME280;6172;42.646;23.344;2023-01-27T06:06:23;93729.44;;;-1.50;100.00
12219;BME280;6172;42.646;23.344;2023-01-27T06:08:50;93723.03;;;-1.42;100.00
12219;BME280;6172;42.646;23.344;2023-01-27T06:11:19;93715.19;;;-1.58;100.00
12219;BME280;6172;42.646;23.344;2023-01-27T06:13:51;93729.34;;;-1.54;100.00
12219;BME280;6172;42.646;23.344;2023-01-27T06:16:20;93718.19;;;-1.63;100.00
12219;BME280;6172;42.646;23.344;2023-01-27T06:18:49;93717.81;;;-1.61;100.00
12219;BME280;6172;42.646;23.344;2023-01-27T06:21:17;93720.16;;;-1.56;100.00
12219;BME280;6172;42.646;23.344;2023-01-27T06:23:45;93746.72;;;-1.41;100.00
12219;BME280;6172;42.646;23.344;2023-01-27T06:26:13;93737.00;;;-1.52;100.00
12219;BME280;6172;42.646;23.344;2023-01-27T06:28:41;93736.72;;;-1.47;100.00
12219;BME280;6172;42.646;23.344;2023-01-27T06:31:11;93722.81;;;-1.60;100.00
12219;BME280;6172;42.646;23.344;2023-01-27T06:33:39;93730.78;;;-1.34;100.00
12219;BME280;6172;42.646;23.344;2023-01-27T06:36:11;93721.03;;;-1.49;100.00
12219;BME280;6172;42.646;23.344;2023-01-27T06:38:40;93732.28;;;-1.36;100.00
12219;BME280;6172;42.646;23.344;2023-01-27T06:41:07;93743.28;;;-1.41;100.00
12219;BME280;6172;42.646;23.344;2023-01-27T06:43:35;93743.28;;;-1.41;100.00
12219;BME280;6172;42.646;23.344;2023-01-27T06:46:02;93737.44;;;-1.50;100.00
12219;BME280;6172;42.646;23.344;2023-01-27T06:48:30;93726.03;;;-1.47;100.00
12219;BME280;6172;42.646;23.344;2023-01-27T06:50:56;93744.31;;;-1.49;100.00
12219;BME280;6172;42.646;23.344;2023-01-27T06:53:26;93749.47;;;-1.37;100.00
12219;BME280;6172;42.646;23.344;2023-01-27T06:55:56;93752.84;;;-1.40;100.00
12219;BME280;6172;42.646;23.344;2023-01-27T06:58:24;93733.34;;;-1.44;100.00
12219;BME280;6172;42.646;23.344;2023-01-27T07:00:51;93753.66;;;-1.36;100.00
12219;BME280;6172;42.646;23.344;2023-01-27T07:03:19;93753.81;;;-1.26;100.00
12219;BME280;6172;42.646;23.344;2023-01-27T07:05:46;93762.75;;;-1.15;100.00
12219;BME280;6172;42.646;23.344;2023-01-27T07:08:13;93763.69;;;-1.30;100.00
12219;BME280;6172;42.646;23.344;2023-01-27T07:10:42;93772.06;;;-1.31;100.00
12219;BME280;6172;42.646;23.344;2023-01-27T07:13:10;93763.00;;;-1.23;100.00
12219;BME280;6172;42.646;23.344;2023-01-27T07:15:38;93757.03;;;-1.13;100.00
12219;BME280;6172;42.646;23.344;2023-01-27T07:18:06;93747.41;;;-1.18;100.00
12219;BME280;6172;42.646;23.344;2023-01-27T07:20:33;93746.94;;;-1.27;100.00
12219;BME280;6172;42.646;23.344;2023-01-27T07:23:02;93741.94;;;-1.28;100.00
12219;BME280;6172;42.646;23.344;2023-01-27T07:25:33;93731.72;;;-1.23;100.00
12219;BME280;6172;42.646;23.344;2023-01-27T07:28:08;93734.47;;;-1.16;100.00
12219;BME280;6172;42.646;23.344;2023-01-27T07:30:40;93737.81;;;-1.22;100.00
12219;BME280;6172;42.646;23.344;2023-01-27T07:33:10;93734.13;;;-1.11;100.00
12219;BME280;6172;42.646;23.344;2023-01-27T07:35:38;93740.88;;;-0.91;100.00
12219;BME280;6172;42.646;23.344;2023-01-27T07:38:06;93744.97;;;-1.00;100.00
12219;BME280;6172;42.646;23.344;2023-01-27T07:40:34;93740.44;;;-0.96;100.00
12219;BME280;6172;42.646;23.344;2023-01-27T07:43:03;93741.63;;;-0.94;100.00
12219;BME280;6172;42.646;23.344;2023-01-27T07:45:51;93745.19;;;-0.83;100.00
12219;BME280;6172;42.646;23.344;2023-01-27T07:48:19;93749.53;;;-0.71;100.00
12219;BME280;6172;42.646;23.344;2023-01-27T07:50:46;93748.53;;;-0.89;100.00
12219;BME280;6172;42.646;23.344;2023-01-27T07:53:13;93752.84;;;-0.81;100.00
12219;BME280;6172;42.646;23.344;2023-01-27T07:55:40;93763.56;;;-0.81;100.00
12219;BME280;6172;42.646;23.344;2023-01-27T07:58:11;93761.16;;;-0.90;100.00
12219;BME280;6172;42.646;23.344;2023-01-27T08:00:38;93749.31;;;-0.89;100.00
12219;BME280;6172;42.646;23.344;2023-01-27T08:03:05;93745.84;;;-0.93;100.00
12219;BME280;6172;42.646;23.344;2023-01-27T08:05:33;93741.28;;;-0.89;100.00
12219;BME280;6172;42.646;23.344;2023-01-27T08:08:02;93746.72;;;-0.82;100.00
12219;BME280;6172;42.646;23.344;2023-01-27T08:10:29;93733.22;;;-0.92;100.00
12219;BME280;6172;42.646;23.344;2023-01-27T08:12:56;93728.00;;;-0.82;100.00
12219;BME280;6172;42.646;23.344;2023-01-27T08:15:24;93743.84;;;-0.66;100.00
12219;BME280;6172;42.646;23.344;2023-01-27T08:17:52;93736.09;;;-0.75;100.00
12219;BME280;6172;42.646;23.344;2023-01-27T08:20:20;93716.13;;;-0.84;100.00
12219;BME280;6172;42.646;23.344;2023-01-27T08:22:47;93745.72;;;-0.70;100.00
12219;BME280;6172;42.646;23.344;2023-01-27T08:25:15;93740.84;;;-0.61;100.00
12219;BME280;6172;42.646;23.344;2023-01-27T08:27:42;93743.03;;;-0.74;100.00
12219;BME280;6172;42.646;23.344;2023-01-27T08:30:10;93739.19;;;-0.73;100.00
12219;BME280;6172;42.646;23.344;2023-01-27T08:32:39;93738.72;;;-0.82;100.00
12219;BME280;6172;42.646;23.344;2023-01-27T08:35:06;93755.38;;;-0.62;100.00
12219;BME280;6172;42.646;23.344;2023-01-27T08:37:35;93740.41;;;-1.00;100.00
12219;BME280;6172;42.646;23.344;2023-01-27T08:40:02;93755.81;;;-0.90;100.00
12219;BME280;6172;42.646;23.344;2023-01-27T08:42:30;93760.72;;;-0.95;100.00
12219;BME280;6172;42.646;23.344;2023-01-27T08:44:57;93757.34;;;-0.89;100.00
12219;BME280;6172;42.646;23.344;2023-01-27T08:47:26;93758.13;;;-0.88;100.00
12219;BME280;6172;42.646;23.344;2023-01-27T08:49:55;93755.53;;;-0.81;100.00
12219;BME280;6172;42.646;23.344;2023-01-27T08:52:23;93749.03;;;-0.80;100.00
12219;BME280;6172;42.646;23.344;2023-01-27T08:54:51;93754.22;;;-0.94;100.00
12219;BME280;6172;42.646;23.344;2023-01-27T08:57:20;93741.25;;;-0.92;100.00
12219;BME280;6172;42.646;23.344;2023-01-27T08:59:47;93747.09;;;-0.83;100.00
12219;BME280;6172;42.646;23.344;2023-01-27T09:02:15;93746.38;;;-0.80;100.00
12219;BME280;6172;42.646;23.344;2023-01-27T09:04:42;93747.78;;;-0.90;100.00
12219;BME280;6172;42.646;23.344;2023-01-27T09:07:12;93752.50;;;-0.80;100.00
12219;BME280;6172;42.646;23.344;2023-01-27T09:09:40;93747.06;;;-0.87;100.00
12219;BME280;6172;42.646;23.344;2023-01-27T09:12:07;93753.59;;;-0.81;100.00
12219;BME280;6172;42.646;23.344;2023-01-27T09:14:34;93747.44;;;-0.88;100.00
12219;BME280;6172;42.646;23.344;2023-01-27T09:17:02;93751.63;;;-0.87;100.00
12219;BME280;6172;42.646;23.344;2023-01-27T09:19:29;93748.22;;;-0.84;100.00
12219;BME280;6172;42.646;23.344;2023-01-27T09:21:56;93747.50;;;-0.81;100.00
12219;BME280;6172;42.646;23.344;2023-01-27T09:24:25;93739.94;;;-0.76;100.00
12219;BME280;6172;42.646;23.344;2023-01-27T09:26:52;93744.91;;;-0.74;100.00
12219;BME280;6172;42.646;23.344;2023-01-27T09:29:19;93732.63;;;-0.79;100.00
12219;BME280;6172;42.646;23.344;2023-01-27T09:31:46;93727.34;;;-0.75;100.00
12219;BME280;6172;42.646;23.344;2023-01-27T09:34:13;93737.53;;;-0.84;100.00
12219;BME280;6172;42.646;23.344;2023-01-27T09:36:46;93711.50;;;-0.87;100.00
12219;BME280;6172;42.646;23.344;2023-01-27T09:39:16;93732.91;;;-0.87;100.00
12219;BME280;6172;42.646;23.344;2023-01-27T09:45:18;93719.03;;;-0.96;100.00
12219;BME280;6172;42.646;23.344;2023-01-27T09:47:58;93714.84;;;-0.97;100.00
12219;BME280;6172;42.646;23.344;2023-01-27T09:50:40;93719.03;;;-1.00;100.00
12219;BME280;6172;42.646;23.344;2023-01-27T09:56:34;93708.31;;;-1.00;100.00
12219;BME280;6172;42.646;23.344;2023-01-27T09:59:21;93690.63;;;-1.11;100.00
12219;BME280;6172;42.646;23.344;2023-01-27T10:01:58;93693.09;;;-0.92;100.00
12219;BME280;6172;42.646;23.344;2023-01-27T10:04:44;93695.78;;;-0.92;100.00
12219;BME280;6172;42.646;23.344;2023-01-27T10:07:39;93692.00;;;-0.91;100.00
12219;BME280;6172;42.646;23.344;2023-01-27T10:10:32;93686.50;;;-1.02;100.00
12219;BME280;6172;42.646;23.344;2023-01-27T10:13:21;93693.03;;;-0.99;100.00
12219;BME280;6172;42.646;23.344;2023-01-27T10:16:01;93691.84;;;-1.05;100.00
12219;BME280;6172;42.646;23.344;2023-01-27T10:19:00;93693.72;;;-1.06;100.00
12219;BME280;6172;42.646;23.344;2023-01-27T10:21:42;93704.09;;;-1.01;100.00
12219;BME280;6172;42.646;23.344;2023-01-27T10:24:19;93685.34;;;-1.04;100.00
12219;BME280;6172;42.646;23.344;2023-01-27T10:26:54;93693.97;;;-0.85;100.00
12219;BME280;6172;42.646;23.344;2023-01-27T10:29:26;93691.50;;;-1.00;100.00
12219;BME280;6172;42.646;23.344;2023-01-27T10:31:59;93694.19;;;-1.00;100.00
12219;BME280;6172;42.646;23.344;2023-01-27T10:34:33;93686.38;;;-0.79;100.00
12219;BME280;6172;42.646;23.344;2023-01-27T10:37:10;93691.25;;;-0.88;100.00
12219;BME280;6172;42.646;23.344;2023-01-27T10:39:45;93680.16;;;-0.90;100.00
12219;BME280;6172;42.646;23.344;2023-01-27T10:42:22;93684.72;;;-0.91;100.00
12219;BME280;6172;42.646;23.344;2023-01-27T10:45:05;93679.41;;;-0.87;100.00
12219;BME280;6172;42.646;23.344;2023-01-27T10:47:51;93686.88;;;-1.03;100.00
12219;BME280;6172;42.646;23.344;2023-01-27T10:50:24;93677.81;;;-0.95;100.00
12219;BME280;6172;42.646;23.344;2023-01-27T10:52:59;93690.28;;;-1.06;100.00
12219;BME280;6172;42.646;23.344;2023-01-27T10:55:36;93673.75;;;-1.15;100.00
12219;BME280;6172;42.646;23.344;2023-01-27T10:58:11;93693.94;;;-0.88;100.00
12219;BME280;6172;42.646;23.344;2023-01-27T11:00:48;93686.19;;;-0.97;100.00
12219;BME280;6172;42.646;23.344;2023-01-27T11:03:26;93689.25;;;-0.98;100.00
12219;BME280;6172;42.646;23.344;2023-01-27T11:06:00;93685.47;;;-0.94;100.00
12219;BME280;6172;42.646;23.344;2023-01-27T11:08:31;93683.25;;;-0.85;100.00
12219;BME280;6172;42.646;23.344;2023-01-27T11:11:02;93676.81;;;-0.80;100.00
12219;BME280;6172;42.646;23.344;2023-01-27T11:13:48;93673.66;;;-0.89;100.00
12219;BME280;6172;42.646;23.344;2023-01-27T11:16:18;93678.50;;;-1.02;100.00
12219;BME280;6172;42.646;23.344;2023-01-27T11:18:54;93661.78;;;-0.95;100.00
12219;BME280;6172;42.646;23.344;2023-01-27T11:21:26;93665.97;;;-0.94;100.00
12219;BME280;6172;42.646;23.344;2023-01-27T11:23:54;93658.63;;;-1.04;100.00
12219;BME280;6172;42.646;23.344;2023-01-27T11:26:29;93673.94;;;-0.98;100.00
12219;BME280;6172;42.646;23.344;2023-01-27T11:29:18;93672.09;;;-0.94;100.00
12219;BME280;6172;42.646;23.344;2023-01-27T11:31:51;93662.53;;;-0.95;100.00
12219;BME280;6172;42.646;23.344;2023-01-27T11:34:26;93666.13;;;-1.13;100.00
12219;BME280;6172;42.646;23.344;2023-01-27T11:36:57;93650.72;;;-1.27;100.00
12219;BME280;6172;42.646;23.344;2023-01-27T11:39:25;93662.56;;;-1.24;100.00
12219;BME280;6172;42.646;23.344;2023-01-27T11:41:56;93674.59;;;-1.08;100.00
12219;BME280;6172;42.646;23.344;2023-01-27T11:44:26;93652.34;;;-1.15;100.00
12219;BME280;6172;42.646;23.344;2023-01-27T11:46:54;93648.66;;;-1.07;100.00
12219;BME280;6172;42.646;23.344;2023-01-27T11:49:27;93654.63;;;-1.17;100.00
12219;BME280;6172;42.646;23.344;2023-01-27T11:52:04;93649.31;;;-1.14;100.00
12219;BME280;6172;42.646;23.344;2023-01-27T11:54:39;93655.22;;;-1.01;100.00
12219;BME280;6172;42.646;23.344;2023-01-27T11:57:19;93644.28;;;-0.86;100.00
12219;BME280;6172;42.646;23.344;2023-01-27T11:59:49;93657.97;;;-0.91;100.00
12219;BME280;6172;42.646;23.344;2023-01-27T12:02:26;93641.50;;;-0.96;100.00
12219;BME280;6172;42.646;23.344;2023-01-27T12:05:03;93646.41;;;-1.02;100.00
12219;BME280;6172;42.646;23.344;2023-01-27T12:07:39;93651.63;;;-1.12;100.00
12219;BME280;6172;42.646;23.344;2023-01-27T12:10:26;93648.56;;;-1.14;100.00
12219;BME280;6172;42.646;23.344;2023-01-27T12:12:56;93635.75;;;-0.98;100.00
12219;BME280;6172;42.646;23.344;2023-01-27T12:15:30;93641.56;;;-0.89;100.00
12219;BME280;6172;42.646;23.344;2023-01-27T12:18:01;93635.72;;;-1.02;100.00
12219;BME280;6172;42.646;23.344;2023-01-27T12:20:35;93652.75;;;-0.80;100.00
12219;BME280;6172;42.646;23.344;2023-01-27T12:23:17;93653.53;;;-0.76;100.00
12219;BME280;6172;42.646;23.344;2023-01-27T12:25:54;93656.66;;;-0.71;100.00
12219;BME280;6172;42.646;23.344;2023-01-27T12:29:04;93652.09;;;-0.70;100.00
12219;BME280;6172;42.646;23.344;2023-01-27T12:31:43;93653.03;;;-0.52;100.00
12219;BME280;6172;42.646;23.344;2023-01-27T12:34:27;93659.13;;;-0.55;100.00
12219;BME280;6172;42.646;23.344;2023-01-27T12:36:57;93654.16;;;-0.53;100.00
12219;BME280;6172;42.646;23.344;2023-01-27T12:39:30;93655.41;;;-0.40;100.00
12219;BME280;6172;42.646;23.344;2023-01-27T12:41:58;93641.72;;;-0.32;100.00
12219;BME280;6172;42.646;23.344;2023-01-27T12:44:39;93647.28;;;-0.54;100.00
12219;BME280;6172;42.646;23.344;2023-01-27T12:47:20;93653.28;;;-0.64;100.00
12219;BME280;6172;42.646;23.344;2023-01-27T12:49:49;93641.88;;;-0.61;100.00
12219;BME280;6172;42.646;23.344;2023-01-27T12:52:20;93637.44;;;-0.83;100.00
12219;BME280;6172;42.646;23.344;2023-01-27T12:54:47;93640.59;;;-0.71;100.00
12219;BME280;6172;42.646;23.344;2023-01-27T12:57:19;93638.78;;;-0.63;100.00
12219;BME280;6172;42.646;23.344;2023-01-27T12:59:52;93651.41;;;-0.64;100.00
12219;BME280;6172;42.646;23.344;2023-01-27T13:02:37;93631.91;;;-0.61;100.00
12219;BME280;6172;42.646;23.344;2023-01-27T13:05:14;93638.63;;;-0.41;100.00
12219;BME280;6172;42.646;23.344;2023-01-27T13:07:46;93630.22;;;-0.39;100.00
12219;BME280;6172;42.646;23.344;2023-01-27T13:10:19;93640.34;;;-0.62;100.00
12219;BME280;6172;42.646;23.344;2023-01-27T13:12:50;93646.19;;;-0.50;100.00
12219;BME280;6172;42.646;23.344;2023-01-27T13:15:19;93637.38;;;-0.50;100.00
12219;BME280;6172;42.646;23.344;2023-01-27T13:17:48;93640.16;;;-0.36;100.00
12219;BME280;6172;42.646;23.344;2023-01-27T13:20:19;93637.69;;;-0.59;100.00